Time;durP1;ratioP1;P1;durP2;ratioP2;P2;SDS_P1;SDS_P2;PMS_P1;PMS_P2;Temp;Humidity;BMP_temperature;BMP_pressure;BME280_temperature;BME280_humidity;BME280_pressure;Samples;Min_cycle;Max_cycle;Signal;HPM_P1;HPM_P2
2021/10/01 00:02:18;;;;;;;56.10;27.42;;;;;;;1.14;94.22;101014.25;1690567;83;20942;-69
2021/10/01 00:04:46;;;;;;;51.73;27.62;;;;;;;1.12;94.28;101015.81;1705644;83;21126;-70
2021/10/01 00:07:18;;;;;;;52.58;26.73;;;;;;;1.10;94.42;101012.50;1691028;83;20996;-69
2021/10/01 00:09:46;;;;;;;47.60;25.12;;;;;;;1.08;94.46;101013.24;1686028;83;21117;-70
2021/10/01 00:12:17;;;;;;;49.05;26.93;;;;;;;1.07;94.47;101013.45;1679219;83;20889;-69
2021/10/01 00:14:45;;;;;;;;;;;;;;;1.03;94.41;101006.83;1685945;82;21020;-69
2021/10/01 00:17:16;;;;;;;47.43;24.27;;;;;;;0.99;94.40;101010.48;1669458;84;20106;-69
2021/10/01 00:19:48;;;;;;;45.80;25.02;;;;;;;0.94;94.67;101009.78;1706993;82;20898;-69
2021/10/01 00:22:19;;;;;;;47.75;24.57;;;;;;;0.93;94.86;101005.95;1732238;81;21052;-69
2021/10/01 00:24:48;;;;;;;44.00;23.87;;;;;;;0.93;95.04;101000.54;1744891;81;21545;-70
2021/10/01 00:27:23;;;;;;;48.95;25.00;;;;;;;0.92;95.02;101004.29;1735672;81;20987;-69
2021/10/01 00:29:55;;;;;;;43.68;22.98;;;;;;;0.91;95.03;101005.34;1725552;81;21357;-69
2021/10/01 00:32:27;;;;;;;42.58;22.25;;;;;;;0.88;95.03;101006.59;1731865;81;20932;-70
2021/10/01 00:35:01;;;;;;;44.13;22.70;;;;;;;0.87;95.10;101000.05;1739499;82;27734;-70
2021/10/01 00:37:28;;;;;;;38.70;22.67;;;;;;;0.85;95.13;101002.14;1700078;82;21188;-70
2021/10/01 00:39:55;;;;;;;37.42;20.95;;;;;;;0.84;95.16;101005.89;1739205;82;21488;-70
2021/10/01 00:42:29;;;;;;;42.25;20.97;;;;;;;0.81;95.25;100993.64;1726536;81;21500;-70
2021/10/01 00:44:59;;;;;;;43.63;21.80;;;;;;;0.79;95.30;100997.08;1726300;82;21498;-70
2021/10/01 00:47:31;;;;;;;39.90;20.60;;;;;;;0.79;95.33;100994.38;1711715;82;20889;-70
2021/10/01 00:49:59;;;;;;;36.53;20.17;;;;;;;0.78;95.44;100992.72;1729609;81;21013;-69
2021/10/01 00:52:37;;;;;;;40.33;19.73;;;;;;;0.77;95.46;100996.47;1735488;81;21473;-69
2021/10/01 00:55:05;;;;;;;36.03;20.05;;;;;;;0.78;95.58;100991.89;1740070;81;21119;-69
2021/10/01 00:57:32;;;;;;;33.65;19.92;;;;;;;0.77;95.69;100992.41;1723473;81;21413;-70
2021/10/01 01:00:10;;;;;;;37.78;19.32;;;;;;;0.78;95.66;100989.19;1738932;81;20925;-69
2021/10/01 01:02:39;;;;;;;37.50;18.73;;;;;;;0.75;95.51;100990.97;1718309;82;20898;-70
2021/10/01 01:05:12;;;;;;;33.58;18.73;;;;;;;0.73;95.49;100991.70;1735156;81;21507;-69
2021/10/01 01:07:54;;;;;;;36.93;19.45;;;;;;;0.71;95.52;100992.44;1731374;81;20903;-69
2021/10/01 01:10:54;;;;;;;32.95;18.32;;;;;;;0.70;95.58;100989.44;1718819;82;20921;-70
2021/10/01 01:13:26;;;;;;;36.17;18.10;;;;;;;0.68;95.71;100991.52;1710371;81;20998;-70
2021/10/01 01:16:00;;;;;;;34.85;18.65;;;;;;;0.66;95.85;100984.98;1731260;81;20951;-69
2021/10/01 01:18:44;;;;;;;35.30;17.45;;;;;;;0.65;95.88;100986.02;1708842;82;20940;-69
2021/10/01 01:21:28;;;;;;;35.80;17.15;;;;;;;0.64;95.88;100982.49;1698456;81;21001;-69
2021/10/01 01:24:48;;;;;;;34.55;18.12;;;;;;;0.62;95.95;100984.58;1708929;82;20980;-69
2021/10/01 01:27:46;;;;;;;31.37;16.77;;;;;;;0.60;95.96;100981.27;1715649;82;20950;-69
2021/10/01 01:30:20;;;;;;;31.48;17.62;;;;;;;0.57;96.01;100985.78;1702206;82;20957;-69
2021/10/01 01:32:54;;;;;;;29.65;16.97;;;;;;;0.57;96.09;100984.43;1704730;82;20842;-69
2021/10/01 01:35:26;;;;;;;;;;;;;;;0.56;96.13;100990.88;1703335;82;21572;-68
2021/10/01 01:37:59;;;;;;;33.20;16.20;;;;;;;0.54;96.08;100985.38;1711692;82;20142;-68
2021/10/01 01:40:33;;;;;;;29.60;16.93;;;;;;;0.54;96.18;100988.09;1729980;81;21042;-70
2021/10/01 01:43:06;;;;;;;28.80;16.30;;;;;;;0.52;96.18;100988.30;1681484;81;21512;-69
2021/10/01 01:45:41;;;;;;;31.82;16.73;;;;;;;0.51;96.19;100988.52;1725750;80;21015;-70
2021/10/01 01:48:12;;;;;;;26.42;15.35;;;;;;;0.49;96.26;100988.73;1740392;81;21519;-69
2021/10/01 01:50:46;;;;;;;28.87;15.85;;;;;;;0.50;96.38;100992.26;1704845;81;20894;-69
2021/10/01 01:53:13;;;;;;;31.90;15.85;;;;;;;0.49;96.38;100995.48;1710078;82;20933;-69
2021/10/01 01:55:48;;;;;;;28.75;16.70;;;;;;;0.49;96.42;100998.70;1765537;80;20916;-69
2021/10/01 01:58:16;;;;;;;36.45;16.70;;;;;;;0.48;96.44;100993.82;1768195;79;21545;-69
2021/10/01 02:00:50;;;;;;;31.68;15.32;;;;;;;0.47;96.44;100998.09;1743750;80;21391;-69
2021/10/01 02:03:19;;;;;;;32.30;15.65;;;;;;;0.45;96.41;100993.42;1747288;80;21073;-69
2021/10/01 02:05:51;;;;;;;28.20;16.15;;;;;;;0.43;96.39;101001.73;1704441;83;20901;-69
2021/10/01 02:08:28;;;;;;;25.68;15.23;;;;;;;0.42;96.40;100997.38;1706024;83;20969;-69
2021/10/01 02:10:57;;;;;;;33.53;15.30;;;;;;;0.41;96.50;100997.59;1705030;83;21509;-69
2021/10/01 02:13:25;;;;;;;25.35;14.90;;;;;;;0.39;96.49;101000.51;1701642;83;22284;-69
2021/10/01 02:15:56;;;;;;;23.92;14.23;;;;;;;0.39;96.52;100999.68;1691483;83;20909;-69
2021/10/01 02:18:32;;;;;;;25.65;15.18;;;;;;;0.36;96.53;101004.16;1681185;83;20942;-69
2021/10/01 02:21:03;;;;;;;28.17;15.20;;;;;;;0.34;96.48;101001.67;1728127;80;21025;-67
2021/10/01 02:23:33;;;;;;;27.67;14.58;;;;;;;0.33;96.49;101006.77;1731522;81;21420;-69
2021/10/01 02:29:21;;;;;;;32.38;14.50;;;;;;;0.30;96.62;101005.84;1755810;80;20975;-68
2021/10/01 02:32:01;;;;;;;32.45;15.70;;;;;;;0.29;96.66;101004.18;1761162;80;21087;-67
2021/10/01 02:34:40;;;;;;;27.87;15.13;;;;;;;0.28;96.76;101007.92;1721951;80;20920;-68
2021/10/01 02:37:13;;;;;;;29.20;15.28;;;;;;;0.27;96.73;101007.61;1738873;80;20982;-68
2021/10/01 02:39:42;;;;;;;33.53;16.25;;;;;;;0.25;96.70;101006.47;1761482;80;21118;-68
2021/10/01 02:42:09;;;;;;;28.00;15.98;;;;;;;0.24;96.74;101005.34;1763775;80;20939;-70
2021/10/01 02:44:40;;;;;;;30.37;16.42;;;;;;;0.22;96.74;101008.25;1687397;83;20931;-70
2021/10/01 02:47:12;;;;;;;31.50;15.68;;;;;;;0.20;96.68;101005.45;1702373;83;20947;-69
2021/10/01 02:49:44;;;;;;;29.15;16.07;;;;;;;0.20;96.79;101010.85;1702761;83;21037;-67
2021/10/01 02:52:25;;;;;;;34.70;16.02;;;;;;;0.19;96.78;101002.44;1702238;83;21162;-68
2021/10/01 02:55:06;;;;;;;29.67;15.32;;;;;;;0.19;96.82;101009.20;1701021;83;20993;-69
2021/10/01 02:58:09;;;;;;;30.17;15.25;;;;;;;0.17;96.82;101015.33;1703631;83;20989;-68
2021/10/01 03:00:40;;;;;;;31.73;15.98;;;;;;;0.15;96.86;101010.66;1710944;80;21653;-67
2021/10/01 03:03:23;;;;;;;30.97;16.15;;;;;;;0.13;96.91;101006.82;1705628;82;21164;-68
2021/10/01 03:05:54;;;;;;;25.12;14.58;;;;;;;0.13;97.02;101007.34;1720301;80;21168;-67
2021/10/01 03:08:22;;;;;;;31.52;15.72;;;;;;;0.13;97.07;101010.04;1648018;85;21099;-67
2021/10/01 03:10:54;;;;;;;28.50;14.20;;;;;;;0.13;97.08;101012.73;1670404;82;21614;-67
2021/10/01 03:13:24;;;;;;;;;;;;;;;0.11;97.09;101008.07;1700199;83;21077;-67
2021/10/01 03:15:59;;;;;;;28.77;14.58;;;;;;;0.11;97.14;101010.77;1739608;80;20084;-67
2021/10/01 03:18:28;;;;;;;30.52;15.15;;;;;;;0.09;97.21;101015.55;1735621;82;21974;-67
2021/10/01 03:20:57;;;;;;;31.77;15.13;;;;;;;0.07;97.23;101014.41;1731554;80;20976;-67
2021/10/01 03:23:28;;;;;;;26.37;15.25;;;;;;;0.06;97.29;101008.70;1719102;80;21045;-66
2021/10/01 03:26:01;;;;;;;33.45;14.68;;;;;;;0.08;97.36;101016.59;1694028;83;21079;-66
2021/10/01 03:28:29;;;;;;;29.77;15.80;;;;;;;0.07;97.46;101019.81;1723595;81;20981;-66
2021/10/01 03:31:02;;;;;;;28.65;15.30;;;;;;;0.06;97.45;101020.02;1759831;80;21523;-66
2021/10/01 03:33:29;;;;;;;27.10;14.58;;;;;;;0.06;97.48;101017.33;1719109;82;21412;-67
2021/10/01 03:36:04;;;;;;;32.20;15.53;;;;;;;0.05;97.44;101020.55;1725319;82;21096;-66
2021/10/01 03:38:33;;;;;;;29.52;13.40;;;;;;;0.04;97.36;101020.76;1743431;80;20935;-66
2021/10/01 03:41:07;;;;;;;28.90;15.10;;;;;;;0.03;97.30;101019.09;1723503;81;20910;-66
2021/10/01 03:43:42;;;;;;;30.17;14.83;;;;;;;0.00;97.24;101017.13;1747800;80;21038;-66
2021/10/01 03:46:10;;;;;;;26.82;14.03;;;;;;;-0.01;97.30;101017.37;1754015;81;21606;-66
2021/10/01 03:48:37;;;;;;;27.75;14.25;;;;;;;-0.04;97.36;101015.92;1752238;81;20943;-66
2021/10/01 03:51:10;;;;;;;24.23;13.70;;;;;;;-0.03;97.42;101018.92;1736568;81;20972;-67
2021/10/01 03:53:43;;;;;;;28.25;14.83;;;;;;;-0.05;97.38;101012.91;1711034;82;21009;-67
2021/10/01 03:56:20;;;;;;;27.13;14.73;;;;;;;-0.06;97.33;101015.81;1683849;83;21189;-66
2021/10/01 03:58:49;;;;;;;31.57;14.75;;;;;;;-0.08;97.37;101015.20;1754428;80;20919;-67
2021/10/01 04:01:24;;;;;;;28.52;15.65;;;;;;;-0.09;97.39;101021.64;1784520;79;20876;-66
2021/10/01 04:03:52;;;;;;;31.12;17.10;;;;;;;-0.10;97.40;101024.03;1766534;80;21111;-67
2021/10/01 04:06:23;;;;;;;38.63;16.87;;;;;;;-0.11;97.46;101031.30;1751270;80;20923;-68
2021/10/01 04:08:54;;;;;;;39.08;18.15;;;;;;;-0.11;97.50;101028.59;1771252;79;22366;-67
2021/10/01 04:11:26;;;;;;;59.25;21.82;;;;;;;-0.11;97.55;101029.11;1757594;80;21122;-67
2021/10/01 04:14:01;;;;;;;72.00;26.17;;;;;;;-0.12;97.64;101029.63;1744022;79;20981;-66
2021/10/01 04:16:32;;;;;;;92.95;30.97;;;;;;;-0.11;97.70;101030.47;1741385;80;20921;-67
2021/10/01 04:19:00;;;;;;;89.87;28.42;;;;;;;-0.09;97.80;101040.53;1755879;80;21435;-67
2021/10/01 04:21:32;;;;;;;89.75;30.45;;;;;;;-0.08;97.88;101032.75;1725406;81;20893;-66
2021/10/01 04:24:01;;;;;;;90.72;29.87;;;;;;;-0.06;97.90;101039.59;1741600;82;21488;-67
2021/10/01 04:26:36;;;;;;;100.20;33.10;;;;;;;-0.04;97.96;101042.09;1712049;81;20909;-65
2021/10/01 04:29:06;;;;;;;95.60;30.97;;;;;;;-0.01;98.08;101039.80;1694681;82;21998;-66
2021/10/01 04:31:40;;;;;;;91.53;30.62;;;;;;;0.04;98.24;101039.66;1685685;83;20984;-66
2021/10/01 04:34:12;;;;;;;101.80;33.28;;;;;;;0.08;98.40;101041.72;1663515;85;21553;-66
2021/10/01 04:36:42;;;;;;;107.37;35.35;;;;;;;0.13;98.49;101043.27;1633088;84;21113;-68
2021/10/01 04:39:13;;;;;;;103.45;35.58;;;;;;;0.19;98.55;101042.95;1697091;81;20950;-66
2021/10/01 04:41:44;;;;;;;103.13;36.40;;;;;;;0.23;98.60;101042.84;1723963;81;21045;-66
2021/10/01 04:44:13;;;;;;;104.55;35.17;;;;;;;0.30;98.69;101042.30;1719513;82;20969;-67
2021/10/01 04:46:47;;;;;;;94.15;34.95;;;;;;;0.36;98.79;101045.51;1725827;82;21160;-67
2021/10/01 04:49:20;;;;;;;97.12;36.35;;;;;;;0.43;98.86;101046.84;1709456;82;20945;-68
2021/10/01 04:51:47;;;;;;;83.20;35.13;;;;;;;0.51;98.99;101039.85;1722560;82;21473;-68
2021/10/01 04:54:19;;;;;;;86.22;33.83;;;;;;;0.58;99.12;101044.68;1730179;81;20961;-67
2021/10/01 04:56:50;;;;;;;82.53;32.58;;;;;;;0.66;99.32;101041.73;1676365;82;20973;-68
2021/10/01 04:59:23;;;;;;;79.55;29.72;;;;;;;0.77;99.53;101038.89;1716768;82;21162;-68
2021/10/01 05:02:11;;;;;;;74.45;28.80;;;;;;;0.89;99.73;101043.41;1703199;82;20989;-68
2021/10/01 05:04:57;;;;;;;68.35;29.32;;;;;;;1.03;99.84;101041.98;1717354;82;21438;-68
2021/10/01 05:07:29;;;;;;;66.72;28.30;;;;;;;1.16;99.91;101046.77;1710798;82;21013;-68
2021/10/01 05:10:20;;;;;;;56.58;26.37;;;;;;;1.29;99.94;101039.92;1710266;81;21081;-68
2021/10/01 05:13:06;;;;;;;62.30;25.40;;;;;;;1.42;99.88;101051.70;1684598;83;20922;-69
2021/10/01 05:15:57;;;;;;;49.27;22.77;;;;;;;1.57;100.00;101050.86;1731815;80;20922;-68
2021/10/01 05:18:47;;;;;;;58.58;24.85;;;;;;;1.72;100.00;101053.25;1775935;80;21640;-67
2021/10/01 05:21:32;;;;;;;42.05;23.12;;;;;;;1.93;100.00;101055.01;1761202;79;21086;-82
2021/10/01 05:24:05;;;;;;;38.48;21.12;;;;;;;2.15;100.00;101058.14;1702384;82;21029;-80
2021/10/01 05:26:38;;;;;;;42.98;21.25;;;;;;;2.34;100.00;101057.61;1754126;80;21152;-77
2021/10/01 05:29:09;;;;;;;47.40;20.65;;;;;;;2.57;100.00;101063.19;1740486;80;21719;-73
2021/10/01 05:31:43;;;;;;;42.78;21.25;;;;;;;2.78;100.00;101059.72;1718879;81;20985;-79
2021/10/01 05:34:16;;;;;;;42.00;21.40;;;;;;;3.00;100.00;101060.86;1741590;82;20898;-76
2021/10/01 05:36:49;;;;;;;44.80;21.95;;;;;;;3.26;100.00;101059.15;1742512;81;20945;-78
2021/10/01 05:39:22;;;;;;;39.50;21.33;;;;;;;3.50;100.00;101067.34;1698531;82;21456;-76
2021/10/01 05:41:55;;;;;;;41.53;21.57;;;;;;;3.72;100.00;101063.02;1695981;82;21425;-76
2021/10/01 05:44:29;;;;;;;33.67;20.00;;;;;;;3.95;100.00;101063.05;1731289;82;22992;-71
2021/10/01 05:47:06;;;;;;;38.10;21.00;;;;;;;4.15;100.00;101070.83;1692971;82;20915;-74
2021/10/01 05:50:02;;;;;;;38.23;21.55;;;;;;;4.38;100.00;101070.53;1739685;81;21032;-77
2021/10/01 05:52:57;;;;;;;38.98;20.65;;;;;;;4.58;100.00;101069.09;1719743;81;21048;-77
2021/10/01 05:55:35;;;;;;;42.15;21.55;;;;;;;4.79;100.00;101079.84;1603743;87;21568;-72
2021/10/01 05:58:26;;;;;;;35.63;19.25;;;;;;;4.98;100.00;101083.23;1605360;88;21089;-72
2021/10/01 06:01:00;;;;;;;33.05;18.48;;;;;;;5.16;100.00;101080.33;1695142;82;21194;-74
2021/10/01 06:03:27;;;;;;;32.25;17.25;;;;;;;5.35;100.00;101076.02;1710657;82;20909;-77
2021/10/01 06:05:56;;;;;;;36.65;19.55;;;;;;;5.52;100.00;101081.80;1717378;82;20916;-76
2021/10/01 06:08:28;;;;;;;35.68;19.65;;;;;;;5.66;100.00;101078.23;1713134;81;21069;-79
2021/10/01 06:10:57;;;;;;;31.87;18.27;;;;;;;5.86;100.00;101079.08;1706588;83;21072;-75
2021/10/01 06:13:34;;;;;;;27.77;16.30;;;;;;;6.02;98.66;101072.02;1667899;83;21006;-76
2021/10/01 06:16:04;;;;;;;28.67;15.80;;;;;;;6.16;96.44;101078.78;1668428;83;21014;-79
2021/10/01 06:18:31;;;;;;;30.55;16.70;;;;;;;6.29;96.00;101077.08;1697633;83;21128;-79
2021/10/01 06:20:57;;;;;;;27.77;14.75;;;;;;;6.45;95.53;101084.91;1701033;83;20987;-80
2021/10/01 06:23:33;;;;;;;27.55;15.10;;;;;;;6.56;93.72;101079.89;1727852;81;20919;-77
2021/10/01 06:26:02;;;;;;;27.02;15.20;;;;;;;6.68;92.49;101086.06;1719053;82;20974;-76
2021/10/01 06:28:35;;;;;;;23.30;13.20;;;;;;;6.78;91.34;101086.73;1730383;81;21522;-80
2021/10/01 06:31:07;;;;;;;32.83;16.25;;;;;;;6.88;89.91;101080.87;1723370;81;21555;-76
2021/10/01 06:33:36;;;;;;;30.17;16.62;;;;;;;6.98;89.82;101078.78;1716896;81;21091;-78
2021/10/01 06:36:12;;;;;;;31.97;18.02;;;;;;;7.12;89.17;101085.50;1728030;82;20920;-80
2021/10/01 06:38:43;;;;;;;32.65;18.57;;;;;;;7.26;88.52;101079.93;1722317;82;21057;-81
2021/10/01 06:41:22;;;;;;;32.42;18.10;;;;;;;7.42;86.85;101081.46;1690405;83;20870;-79
2021/10/01 06:44:02;;;;;;;29.90;16.07;;;;;;;7.53;85.32;101086.74;1640772;85;21475;-78
2021/10/01 06:46:42;;;;;;;34.95;18.17;;;;;;;7.65;84.00;101089.32;1746739;80;21578;-77
2021/10/01 06:49:20;;;;;;;27.60;15.35;;;;;;;7.77;84.74;101095.45;1740054;81;21490;-75
2021/10/01 06:51:52;;;;;;;30.40;17.15;;;;;;;7.94;84.96;101090.69;1744992;81;20975;-79
2021/10/01 07:36:46;;;;;;;11.80;8.13;;;;;;;15.06;54.69;101072.64;1726429;82;20986;-76
2021/10/01 08:20:54;;;;;;;12.98;7.35;;;;;;;17.01;40.60;101067.48;1760226;80;21161;-77
2021/10/01 08:23:26;;;;;;;7.78;5.45;;;;;;;16.95;41.95;101068.20;1733974;81;21009;-77
2021/10/01 08:25:55;;;;;;;9.18;5.50;;;;;;;17.12;42.74;101058.55;1736759;81;20909;-80
2021/10/01 08:28:24;;;;;;;9.55;4.60;;;;;;;17.22;41.29;101062.16;1738073;82;21480;-81
2021/10/01 08:31:07;;;;;;;12.70;4.75;;;;;;;17.20;39.09;101059.70;1693417;81;21002;-80
2021/10/01 08:33:36;;;;;;;10.63;7.92;;;;;;;17.19;40.49;101062.80;1706882;81;20893;-80
2021/10/01 08:36:05;;;;;;;10.78;6.83;;;;;;;17.38;39.51;101063.30;1739831;80;21095;-80
2021/10/01 08:38:38;;;;;;;11.70;8.05;;;;;;;17.54;41.30;101063.07;1750278;81;21420;-81
2021/10/01 08:41:12;;;;;;;11.50;5.05;;;;;;;17.63;40.16;101061.69;1756632;80;21303;-81
2021/10/01 08:43:46;;;;;;;30.50;8.08;;;;;;;17.74;39.85;101063.03;1678879;82;21049;-80
2021/10/01 08:46:17;;;;;;;14.80;6.55;;;;;;;17.82;39.86;101063.59;1737064;81;21158;-81
2021/10/01 08:48:49;;;;;;;10.88;6.00;;;;;;;17.99;39.61;101061.34;1699812;80;21072;-79
2021/10/01 08:51:20;;;;;;;9.48;4.33;;;;;;;18.23;36.43;101056.08;1734877;80;20906;-77
2021/10/01 08:53:54;;;;;;;10.13;4.50;;;;;;;18.30;36.29;101050.02;1752511;80;21496;-76
2021/10/01 08:56:27;;;;;;;11.93;5.03;;;;;;;18.30;36.33;101052.22;1751998;80;21651;-79
2021/10/01 08:58:59;;;;;;;20.55;12.28;;;;;;;18.40;36.70;101050.48;1767990;80;21772;-77
2021/10/01 09:01:28;;;;;;;17.82;8.93;;;;;;;18.46;37.05;101050.54;1759398;80;20872;-77
2021/10/01 09:04:07;;;;;;;10.78;4.20;;;;;;;18.47;36.25;101052.75;1749806;80;21043;-78
2021/10/01 09:06:28;;;;;;;5.33;4.20;;;;;;;18.34;36.16;101049.59;1745152;80;21529;-78
2021/10/01 09:08:58;;;;;;;6.75;4.35;;;;;;;18.28;34.82;101042.01;1758831;80;21200;-78
2021/10/01 09:11:30;;;;;;;10.63;4.22;;;;;;;18.31;37.16;101047.48;1711498;81;21633;-78
2021/10/01 09:14:11;;;;;;;7.28;3.80;;;;;;;18.60;37.21;101039.75;1714654;82;21022;-78
2021/10/01 09:16:51;;;;;;;8.40;4.47;;;;;;;18.80;36.49;101037.64;1715588;82;20991;-76
2021/10/01 09:19:21;;;;;;;5.92;4.05;;;;;;;18.70;35.07;101037.44;1701885;83;20899;-79
2021/10/01 09:21:58;;;;;;;7.50;3.98;;;;;;;18.67;35.91;101035.91;1710396;81;21517;-79
2021/10/01 09:24:26;;;;;;;5.70;4.15;;;;;;;18.84;35.78;101040.00;1713235;81;20968;-80
2021/10/01 09:26:57;;;;;;;8.30;4.80;;;;;;;18.94;34.40;101036.02;1761903;80;21576;-80
2021/10/01 09:29:34;;;;;;;8.20;3.72;;;;;;;19.01;36.23;101032.14;1761446;80;21042;-79
2021/10/01 09:32:21;;;;;;;7.60;3.67;;;;;;;19.16;34.35;101033.48;1752183;80;20987;-80
2021/10/01 09:34:58;;;;;;;4.90;3.20;;;;;;;19.19;34.18;101030.03;1725971;81;21041;-80
2021/10/01 09:37:30;;;;;;;7.67;3.27;;;;;;;19.16;31.75;101034.88;1749295;80;21515;-78
2021/10/01 09:40:02;;;;;;;;;;;;;;;19.09;32.00;101034.02;1760813;80;21010;-78
2021/10/01 09:42:44;;;;;;;5.78;3.52;;;;;;;18.99;31.56;101025.52;1732483;80;20104;-78
2021/10/01 09:45:15;;;;;;;4.90;3.50;;;;;;;19.05;32.67;101022.78;1764978;80;20940;-75
2021/10/01 09:47:49;;;;;;;5.25;3.83;;;;;;;19.32;31.64;101032.56;1759427;80;21557;-70
2021/10/01 09:50:31;;;;;;;7.30;3.77;;;;;;;19.32;32.16;101023.39;1778197;80;21126;-70
2021/10/01 09:53:05;;;;;;;9.28;3.83;;;;;;;19.45;33.73;101025.09;1769123;80;20904;-71
2021/10/01 09:55:41;;;;;;;5.97;3.95;;;;;;;19.83;32.78;101019.94;1734599;80;20988;-69
2021/10/01 09:58:16;;;;;;;5.33;4.03;;;;;;;19.93;29.96;101025.09;1712965;82;21040;-68
2021/10/01 10:00:49;;;;;;;5.67;4.00;;;;;;;19.62;30.12;101030.56;1710083;83;21007;-69
2021/10/01 10:03:30;;;;;;;5.95;4.05;;;;;;;19.51;31.70;101029.34;1706143;83;21149;-69
2021/10/01 10:06:10;;;;;;;8.58;4.55;;;;;;;19.63;30.36;101021.05;1703967;83;20988;-72
2021/10/01 10:08:43;;;;;;;24.00;13.43;;;;;;;19.56;32.50;101016.59;1699810;83;21070;-73
2021/10/01 10:11:19;;;;;;;8.20;4.20;;;;;;;19.45;33.07;101016.16;1704366;83;21100;-71
2021/10/01 10:13:52;;;;;;;6.97;3.27;;;;;;;19.51;31.92;101009.00;1694881;83;21072;-71
2021/10/01 10:16:23;;;;;;;4.67;3.22;;;;;;;19.66;31.04;101006.41;1706604;83;21518;-69
2021/10/01 10:19:02;;;;;;;7.87;3.42;;;;;;;19.88;30.76;101008.58;1703483;82;20993;-70
2021/10/01 10:21:32;;;;;;;4.58;3.05;;;;;;;19.89;31.48;101008.82;1716414;81;21516;-69
2021/10/01 10:24:02;;;;;;;5.37;3.50;;;;;;;19.85;29.98;101014.84;1751896;81;21444;-69
2021/10/01 10:26:35;;;;;;;4.97;3.50;;;;;;;19.79;29.89;101010.88;1722912;81;20973;-70
2021/10/01 10:29:08;;;;;;;6.62;3.62;;;;;;;19.90;31.06;100998.72;1708993;81;21157;-70
2021/10/01 10:31:43;;;;;;;7.00;3.42;;;;;;;19.95;30.30;101001.88;1694678;83;20983;-71
2021/10/01 10:34:28;;;;;;;9.73;3.35;;;;;;;20.04;30.02;100997.84;1696537;83;21008;-71
2021/10/01 10:37:08;;;;;;;7.03;3.75;;;;;;;20.12;31.36;100998.91;1732543;82;21058;-69
2021/10/01 10:39:40;;;;;;;5.78;4.10;;;;;;;20.37;29.78;100999.16;1742515;81;21004;-68
2021/10/01 10:42:11;;;;;;;7.25;4.00;;;;;;;20.51;32.81;101000.83;1756029;80;21558;-69
2021/10/01 10:44:55;;;;;;;7.65;2.87;;;;;;;20.53;28.99;100990.14;1741163;80;21032;-69
2021/10/01 10:48:04;;;;;;;7.15;3.42;;;;;;;20.16;29.58;100999.84;1710607;80;20945;-71
2021/10/01 10:50:41;;;;;;;7.83;3.70;;;;;;;20.11;30.40;100990.30;1745470;81;21103;-69
2021/10/01 10:53:20;;;;;;;5.08;3.12;;;;;;;20.41;30.17;100991.76;1697068;82;20908;-69
2021/10/01 10:55:59;;;;;;;7.37;3.33;;;;;;;20.70;29.25;100989.92;1684561;83;21047;-72
2021/10/01 10:58:36;;;;;;;5.20;3.05;;;;;;;20.78;29.75;100986.20;1730673;81;21029;-69
2021/10/01 11:01:25;;;;;;;4.85;2.72;;;;;;;20.52;28.19;100988.52;1708654;81;21664;-69
2021/10/01 11:04:09;;;;;;;5.65;3.60;;;;;;;20.12;28.31;100983.58;1748632;80;21051;-71
2021/10/01 11:06:41;;;;;;;4.53;3.20;;;;;;;19.89;28.97;100978.16;1714902;81;21039;-71
2021/10/01 11:09:26;;;;;;;4.37;3.08;;;;;;;19.79;29.04;100966.29;1734240;81;21097;-70
2021/10/01 11:11:59;;;;;;;10.00;2.77;;;;;;;19.94;29.44;100974.58;1718810;82;21421;-70
2021/10/01 11:14:32;;;;;;;4.30;3.05;;;;;;;20.24;30.45;100968.23;1685152;83;20952;-69
2021/10/01 11:17:11;;;;;;;6.55;3.35;;;;;;;20.50;30.41;100958.18;1696026;83;21129;-72
2021/10/01 11:19:48;;;;;;;8.83;3.58;;;;;;;20.62;30.07;100962.95;1716692;82;20902;-76
2021/10/01 11:22:37;;;;;;;6.33;3.50;;;;;;;20.73;29.60;100962.71;1727988;82;21143;-74
2021/10/01 11:25:22;;;;;;;5.25;2.72;;;;;;;20.46;28.51;100953.64;1718516;81;21008;-68
2021/10/01 11:27:58;;;;;;;3.17;2.65;;;;;;;20.38;31.60;100952.02;1696533;82;20993;-70
2021/10/01 11:30:28;;;;;;;6.87;3.00;;;;;;;20.57;28.08;100953.41;1722965;81;21079;-69
2021/10/01 11:33:14;;;;;;;5.12;2.90;;;;;;;20.34;28.41;100947.45;1703397;82;27016;-69
2021/10/01 11:36:01;;;;;;;4.15;2.90;;;;;;;20.26;29.67;100939.42;1730811;82;21167;-71
2021/10/01 11:38:33;;;;;;;3.85;2.95;;;;;;;20.51;29.18;100938.88;1718236;82;20941;-70
2021/10/01 11:41:14;;;;;;;7.62;3.05;;;;;;;20.65;28.63;100946.32;1704948;82;21579;-70
2021/10/01 11:43:49;;;;;;;5.12;3.02;;;;;;;20.46;28.08;100949.45;1718478;81;21104;-72
2021/10/01 11:46:35;;;;;;;7.80;2.92;;;;;;;20.13;29.55;100949.54;1712101;81;21600;-69
2021/10/01 11:49:27;;;;;;;7.87;3.45;;;;;;;20.12;29.33;100941.75;1721024;81;21135;-69
2021/10/01 11:52:02;;;;;;;3.05;2.75;;;;;;;20.06;28.47;100941.75;1732926;82;20939;-69
2021/10/01 11:54:36;;;;;;;11.20;3.08;;;;;;;20.12;28.44;100926.42;1714571;82;21040;-72
2021/10/01 11:57:09;;;;;;;5.57;2.70;;;;;;;20.30;28.93;100925.02;1729201;81;20948;-68
2021/10/01 12:00:02;;;;;;;5.78;2.90;;;;;;;20.44;27.52;100932.49;1703943;83;20950;-71
2021/10/01 12:02:44;;;;;;;23.77;4.95;;;;;;;20.38;28.88;100929.70;1712265;82;21857;-70
2021/10/01 12:05:33;;;;;;;8.38;4.87;;;;;;;20.30;30.37;100926.99;1711509;83;21033;-67
2021/10/01 12:08:12;;;;;;;3.90;3.20;;;;;;;20.54;30.51;100934.58;1710333;83;20950;-68
2021/10/01 12:10:49;;;;;;;;;;;;;;;20.80;28.91;100928.02;1702005;83;21034;-68
2021/10/01 12:13:23;;;;;;;6.75;3.20;;;;;;;21.03;27.98;100926.35;1702042;83;37337;-67
2021/10/01 12:16:00;;;;;;;6.28;3.02;;;;;;;21.18;28.03;100927.59;1691582;83;21161;-68
2021/10/01 12:18:44;;;;;;;29.98;11.78;;;;;;;21.42;27.74;100919.72;1695421;83;20987;-69
2021/10/01 12:21:18;;;;;;;370.23;170.82;;;;;;;21.82;27.11;100914.63;1670575;82;21086;-70
2021/10/01 12:23:50;;;;;;;381.23;170.25;;;;;;;21.89;27.91;100911.44;1730686;81;20953;-68
2021/10/01 12:26:32;;;;;;;;;;;;;;;21.81;28.80;100915.80;1737654;81;21005;-68
2021/10/01 12:29:17;;;;;;;54.10;26.15;;;;;;;21.79;27.95;100909.76;1746443;81;21259;-69
2021/10/01 12:31:54;;;;;;;27.27;12.93;;;;;;;21.96;28.69;100903.20;1740878;82;21503;-70
2021/10/01 12:34:30;;;;;;;22.65;8.53;;;;;;;22.20;26.48;100905.05;1736863;81;21088;-67
2021/10/01 12:37:04;;;;;;;15.70;5.58;;;;;;;22.01;26.24;100904.92;1699400;83;21039;-68
2021/10/01 12:39:35;;;;;;;5.85;3.42;;;;;;;21.81;28.11;100903.22;1730836;81;21503;-73
2021/10/01 12:42:10;;;;;;;7.70;3.02;;;;;;;21.74;27.19;100898.25;1746720;80;21795;-68
2021/10/01 12:44:40;;;;;;;20.75;8.88;;;;;;;21.82;27.00;100893.08;1743612;81;21716;-68
2021/10/01 12:47:20;;;;;;;11.88;6.28;;;;;;;22.03;27.85;100902.61;1736363;81;21030;-67
2021/10/01 12:50:04;;;;;;;7.37;4.53;;;;;;;22.19;26.88;100894.23;1714271;82;21009;-69
2021/10/01 12:52:33;;;;;;;9.70;3.95;;;;;;;22.02;26.83;100899.59;1698380;82;21119;-69
2021/10/01 12:55:13;;;;;;;8.33;4.47;;;;;;;21.76;27.03;100900.11;1707083;81;21163;-67
2021/10/01 12:57:51;;;;;;;15.83;8.13;;;;;;;21.47;26.49;100890.13;1702461;82;20990;-67
2021/10/01 13:00:30;;;;;;;21.70;10.43;;;;;;;21.22;28.17;100899.80;1698103;83;21511;-69
2021/10/01 13:03:09;;;;;;;7.37;4.10;;;;;;;21.40;29.84;100896.91;1750465;80;22450;-68
2021/10/01 13:05:41;;;;;;;4.62;3.52;;;;;;;21.54;27.48;100890.33;1754324;80;21015;-68
2021/10/01 13:08:20;;;;;;;9.05;5.92;;;;;;;21.71;27.26;100887.20;1716190;82;21544;-68
2021/10/01 13:11:00;;;;;;;5.25;3.12;;;;;;;21.81;27.19;100885.05;1736002;82;21512;-69
2021/10/01 13:13:33;;;;;;;6.90;3.22;;;;;;;21.82;28.04;100880.50;1704503;82;20935;-67
2021/10/01 13:16:12;;;;;;;5.53;3.40;;;;;;;22.02;28.28;100885.02;1734224;81;21015;-67
2021/10/01 13:18:39;;;;;;;5.92;2.98;;;;;;;22.15;27.81;100882.95;1698917;81;21014;-66
2021/10/01 13:21:17;;;;;;;8.68;3.22;;;;;;;22.12;26.67;100882.27;1757046;80;21151;-68
2021/10/01 13:23:59;;;;;;;18.25;4.33;;;;;;;22.10;26.83;100880.42;1737241;81;20980;-66